createdAt,value
2023-01-31T00:00:50.168Z,101760.59
2023-01-31T00:03:16.590Z,101797.28
2023-01-31T00:05:43.038Z,101804.31
2023-01-31T00:08:09.394Z,101763.13
2023-01-31T00:10:36.214Z,101789.38
2023-01-31T00:13:02.643Z,101794.63
2023-01-31T00:15:28.997Z,101766.69
2023-01-31T00:17:55.535Z,101840.00
2023-01-31T00:20:21.853Z,101811.09
2023-01-31T00:22:48.325Z,101788.28
2023-01-31T00:25:14.727Z,101795.94
2023-01-31T00:27:41.059Z,101772.41
2023-01-31T00:30:08.211Z,101735.81
2023-01-31T00:32:34.976Z,101852.50
2023-01-31T00:35:01.355Z,101818.13
2023-01-31T00:37:27.665Z,101810.16
2023-01-31T00:39:54.123Z,101777.22
2023-01-31T00:42:20.529Z,101801.13
2023-01-31T00:44:46.881Z,101722.31
2023-01-31T00:47:13.221Z,101762.44
2023-01-31T00:49:39.554Z,101762.31
2023-01-31T00:52:05.974Z,101775.41
2023-01-31T00:54:32.394Z,101732.75
2023-01-31T00:56:58.711Z,101803.34
2023-01-31T00:59:25.043Z,101787.78
2023-01-31T01:01:51.528Z,101813.59
2023-01-31T01:04:18.025Z,101782.53
2023-01-31T01:06:44.378Z,101813.72
2023-01-31T01:09:10.732Z,101735.09
2023-01-31T01:11:37.223Z,101808.53
2023-01-31T01:14:04.162Z,101735.53
2023-01-31T01:16:37.994Z,101794.06
2023-01-31T01:19:07.035Z,101844.56
2023-01-31T01:21:39.047Z,101808.78
2023-01-31T01:24:07.227Z,101794.13
2023-01-31T01:26:35.101Z,101711.25
2023-01-31T01:29:02.454Z,101830.09
2023-01-31T01:31:32.565Z,101761.38
2023-01-31T01:34:01.942Z,101828.22
2023-01-31T01:36:29.231Z,101786.41
2023-01-31T01:38:55.887Z,101756.56
2023-01-31T01:41:22.241Z,101821.47
2023-01-31T01:43:53.519Z,101818.75
2023-01-31T01:46:40.812Z,101818.81
2023-01-31T01:49:33.218Z,101821.53
2023-01-31T01:52:05.315Z,101796.84
2023-01-31T01:54:40.372Z,101812.44
2023-01-31T01:57:08.308Z,101809.69
2023-01-31T01:59:40.423Z,101803.66
2023-01-31T02:02:07.244Z,101820.38
2023-01-31T02:04:39.474Z,101765.28
2023-01-31T02:07:08.927Z,101815.00
2023-01-31T02:09:45.331Z,101799.25
2023-01-31T02:12:12.673Z,101817.34
2023-01-31T02:14:39.422Z,101814.16
2023-01-31T02:17:05.795Z,101785.31
2023-01-31T02:19:51.655Z,101742.63
2023-01-31T02:22:27.726Z,101801.25
2023-01-31T02:25:41.222Z,101782.66
2023-01-31T02:28:19.750Z,101812.53
2023-01-31T02:31:31.294Z,101820.38
2023-01-31T02:34:03.891Z,101824.66
2023-01-31T02:36:42.689Z,101828.22
2023-01-31T02:39:37.636Z,101804.50
2023-01-31T02:42:20.632Z,101830.88
2023-01-31T02:44:59.172Z,101828.22
2023-01-31T02:47:28.465Z,101827.31
2023-01-31T02:50:02.877Z,101820.56
2023-01-31T02:52:40.035Z,101833.41
2023-01-31T02:55:27.743Z,101825.56
2023-01-31T02:57:57.343Z,101830.56
2023-01-31T03:00:25.725Z,101771.97
2023-01-31T03:02:52.232Z,101698.22
2023-01-31T03:05:20.488Z,101804.69
2023-01-31T03:07:52.672Z,101818.13
2023-01-31T03:10:33.237Z,101748.97
2023-01-31T03:13:28.367Z,101810.59
2023-01-31T03:16:39.218Z,101813.66
2023-01-31T03:19:14.155Z,101729.09
2023-01-31T03:21:53.261Z,101800.63
2023-01-31T03:24:22.012Z,101796.41
2023-01-31T03:26:49.240Z,101745.91
2023-01-31T03:29:17.597Z,101717.03
2023-01-31T03:31:54.063Z,101788.09
2023-01-31T03:34:20.613Z,101749.56
2023-01-31T03:36:57.255Z,101770.47
2023-01-31T03:39:36.167Z,101779.09
2023-01-31T03:42:09.638Z,101779.75
2023-01-31T03:45:04.791Z,101785.13
2023-01-31T03:47:33.092Z,101772.69
2023-01-31T03:50:05.783Z,101743.38
2023-01-31T03:52:38.317Z,101738.78
2023-01-31T03:55:12.500Z,101766.72
2023-01-31T03:57:42.384Z,101786.94
2023-01-31T04:00:14.187Z,101708.72
2023-01-31T04:02:41.454Z,101715.66
2023-01-31T04:05:18.717Z,101707.75
2023-01-31T04:07:45.529Z,101701.13
2023-01-31T04:10:15.691Z,101759.81
2023-01-31T04:12:42.109Z,101741.25
2023-01-31T04:15:09.430Z,101646.94
2023-01-31T04:17:35.988Z,101642.00
2023-01-31T04:20:02.497Z,101750.56
2023-01-31T04:22:28.923Z,101697.94
2023-01-31T04:24:55.238Z,101701.50
2023-01-31T04:27:21.587Z,101722.19
2023-01-31T04:29:47.949Z,101704.63
2023-01-31T04:32:14.486Z,101685.50
2023-01-31T04:34:40.868Z,101754.22
2023-01-31T04:37:07.225Z,101623.78
2023-01-31T04:39:33.624Z,101665.88
2023-01-31T04:42:00.073Z,101691.69
2023-01-31T04:44:26.510Z,101641.69
2023-01-31T04:46:52.940Z,101749.81
2023-01-31T04:49:19.268Z,101722.78
2023-01-31T04:51:45.719Z,101700.31
2023-01-31T04:54:12.446Z,101727.44
2023-01-31T04:56:38.823Z,101718.50
2023-01-31T04:59:05.166Z,101617.22
2023-01-31T05:01:31.885Z,101729.28
2023-01-31T05:03:58.288Z,101713.91
2023-01-31T05:06:24.692Z,101689.66
2023-01-31T05:08:52.917Z,101660.44
2023-01-31T05:11:19.233Z,101712.94
2023-01-31T05:13:45.656Z,101687.84
2023-01-31T05:16:12.396Z,101640.13
2023-01-31T05:18:39.413Z,101703.91
2023-01-31T05:21:07.383Z,101647.38
2023-01-31T05:23:34.321Z,101605.41
2023-01-31T05:26:00.697Z,101699.97
2023-01-31T05:28:27.132Z,101709.03
2023-01-31T05:30:54.103Z,101663.44
2023-01-31T05:33:29.368Z,101718.81
2023-01-31T05:35:56.540Z,101675.63
2023-01-31T05:38:22.997Z,101681.81
2023-01-31T05:40:52.948Z,101663.22
2023-01-31T05:43:19.338Z,101688.59
2023-01-31T05:45:48.229Z,101583.63
2023-01-31T05:48:14.665Z,101658.94
2023-01-31T05:50:41.018Z,101672.63
2023-01-31T05:53:09.134Z,101652.00
2023-01-31T05:55:35.807Z,101631.16
2023-01-31T05:58:02.464Z,101692.25
2023-01-31T06:00:29.065Z,101644.50
2023-01-31T06:02:59.913Z,101694.38
2023-01-31T06:05:27.030Z,101656.91
2023-01-31T06:07:53.433Z,101617.94
2023-01-31T06:10:21.095Z,101690.44
2023-01-31T06:12:47.827Z,101663.28
2023-01-31T06:15:14.183Z,101635.41
2023-01-31T06:17:40.556Z,101646.75
2023-01-31T06:20:07.410Z,101627.66
2023-01-31T06:22:34.226Z,101658.13
2023-01-31T06:25:00.650Z,101555.06
2023-01-31T06:27:27.075Z,101639.34
2023-01-31T06:29:53.393Z,101706.69
2023-01-31T06:32:19.840Z,101639.66
2023-01-31T06:34:46.479Z,101669.41
2023-01-31T06:37:12.975Z,101642.91
2023-01-31T06:39:39.373Z,101656.50
2023-01-31T06:42:06.197Z,101569.94
2023-01-31T06:44:33.420Z,101689.03
2023-01-31T06:47:01.301Z,101704.16
2023-01-31T06:49:27.702Z,101677.09
2023-01-31T06:51:54.412Z,101670.03
2023-01-31T06:54:20.820Z,101669.13
2023-01-31T06:56:47.401Z,101686.72
2023-01-31T06:59:13.693Z,101689.66
2023-01-31T07:01:40.068Z,101677.38
2023-01-31T07:04:06.396Z,101674.66
2023-01-31T07:06:32.771Z,101679.06
2023-01-31T07:08:59.102Z,101687.91
2023-01-31T07:11:25.421Z,101684.78
2023-01-31T07:13:53.167Z,101679.53
2023-01-31T07:16:19.727Z,101714.28
2023-01-31T07:18:46.308Z,101672.56
2023-01-31T07:21:12.633Z,101704.72
2023-01-31T07:23:39.463Z,101657.13
2023-01-31T07:26:06.331Z,101671.41
2023-01-31T07:28:32.717Z,101692.53
2023-01-31T07:31:12.588Z,101682.50
2023-01-31T07:33:39.916Z,101684.91
2023-01-31T07:36:07.859Z,101674.56
2023-01-31T07:38:35.506Z,101667.47
2023-01-31T07:41:03.282Z,101664.31
2023-01-31T07:43:31.128Z,101656.41
2023-01-31T07:45:57.995Z,101660.59
2023-01-31T07:48:24.519Z,101648.03
2023-01-31T07:51:00.428Z,101599.72
2023-01-31T07:53:32.327Z,101677.50
2023-01-31T07:56:25.177Z,101676.53
2023-01-31T07:58:51.528Z,101664.13
2023-01-31T08:01:42.112Z,101685.53
2023-01-31T08:04:21.210Z,101637.19
2023-01-31T08:06:50.551Z,101667.72
2023-01-31T08:09:16.890Z,101622.75
2023-01-31T08:11:43.254Z,101638.34
2023-01-31T08:14:09.908Z,101652.31
2023-01-31T08:16:36.863Z,101640.94
2023-01-31T08:19:04.014Z,101657.66
2023-01-31T08:21:30.562Z,101652.63
2023-01-31T08:23:57.147Z,101644.16
2023-01-31T08:26:23.644Z,101627.00
2023-01-31T08:28:51.624Z,101639.38
2023-01-31T08:31:21.645Z,101627.84
2023-01-31T08:33:51.155Z,101622.63
2023-01-31T08:36:20.316Z,101640.00
2023-01-31T08:38:47.614Z,101654.25
2023-01-31T08:41:14.350Z,101639.22
2023-01-31T08:43:54.839Z,101647.53
2023-01-31T08:46:27.023Z,101628.19
2023-01-31T08:48:54.410Z,101619.19
2023-01-31T08:51:21.556Z,101617.84
2023-01-31T08:53:48.099Z,101607.19
2023-01-31T08:56:15.112Z,101577.03
2023-01-31T08:58:43.584Z,101585.59
2023-01-31T09:01:12.599Z,101605.50
2023-01-31T09:03:39.609Z,101601.34
2023-01-31T09:06:10.728Z,101600.78
2023-01-31T09:08:37.232Z,101559.50
2023-01-31T09:11:04.633Z,101590.03
2023-01-31T09:13:32.351Z,101602.22
2023-01-31T09:16:10.796Z,101585.84
2023-01-31T09:18:39.049Z,101595.13
2023-01-31T09:21:18.901Z,101589.41
2023-01-31T09:23:47.010Z,101560.13
2023-01-31T09:26:14.790Z,101569.50
2023-01-31T09:28:45.454Z,101587.97
2023-01-31T09:31:15.117Z,101532.41
2023-01-31T09:33:41.948Z,101600.91
2023-01-31T09:36:10.562Z,101535.03
2023-01-31T09:38:37.572Z,101596.78
2023-01-31T09:41:21.668Z,101542.97
2023-01-31T09:43:54.239Z,101588.31
2023-01-31T09:46:26.009Z,101582.38
2023-01-31T09:48:55.313Z,101534.41
2023-01-31T09:51:22.879Z,101590.38
2023-01-31T09:53:49.352Z,101578.94
2023-01-31T09:56:24.610Z,101562.34
2023-01-31T09:59:11.320Z,101571.16
2023-01-31T10:02:11.671Z,101577.03
2023-01-31T10:04:48.008Z,101548.97
2023-01-31T10:07:28.402Z,101574.09
2023-01-31T10:10:11.121Z,101546.91
2023-01-31T10:12:43.409Z,101465.81
2023-01-31T10:15:32.868Z,101531.03
2023-01-31T10:18:09.723Z,101540.69
2023-01-31T10:20:42.715Z,101495.47
2023-01-31T10:23:26.412Z,101554.81
2023-01-31T10:25:59.184Z,101548.00
2023-01-31T10:28:30.260Z,101515.25
2023-01-31T10:31:03.339Z,101525.53
2023-01-31T10:33:51.750Z,101496.00
2023-01-31T10:36:36.505Z,101501.44
2023-01-31T10:39:17.395Z,101503.22
2023-01-31T10:42:02.050Z,101496.28
2023-01-31T10:44:43.478Z,101479.78
2023-01-31T10:47:13.982Z,101486.44
2023-01-31T10:49:44.322Z,101507.59
2023-01-31T10:52:19.530Z,101435.50
2023-01-31T10:55:04.118Z,101502.38
2023-01-31T10:57:31.774Z,101456.38
2023-01-31T10:59:58.287Z,101435.47
2023-01-31T11:02:28.541Z,101391.28
2023-01-31T11:04:57.863Z,101444.03
2023-01-31T11:07:28.053Z,101451.13
2023-01-31T11:09:55.531Z,101451.97
2023-01-31T11:12:38.856Z,101470.25
2023-01-31T11:15:17.303Z,101501.72
2023-01-31T11:17:46.366Z,101411.34
2023-01-31T11:20:23.977Z,101475.44
2023-01-31T11:22:52.037Z,101452.84
2023-01-31T11:25:22.051Z,101458.00
2023-01-31T11:27:49.825Z,101491.88
2023-01-31T11:30:32.677Z,101464.00
2023-01-31T11:32:59.222Z,101448.34
2023-01-31T11:35:32.003Z,101473.59
2023-01-31T11:38:01.515Z,101472.00
2023-01-31T11:40:32.148Z,101459.88
2023-01-31T11:43:02.181Z,101463.34
2023-01-31T11:45:31.831Z,101436.41
2023-01-31T11:48:08.101Z,101396.38
2023-01-31T11:50:38.442Z,101411.22
2023-01-31T11:53:17.709Z,101423.31
2023-01-31T11:55:44.872Z,101433.72
2023-01-31T11:58:31.295Z,101417.31
2023-01-31T12:01:06.406Z,101399.88
2023-01-31T12:03:33.909Z,101403.41
2023-01-31T12:06:10.508Z,101416.53
2023-01-31T12:08:39.136Z,101429.38
2023-01-31T12:11:06.625Z,101433.81
2023-01-31T12:13:46.330Z,101411.31
2023-01-31T12:16:12.831Z,101386.00
2023-01-31T12:18:39.166Z,101435.69
2023-01-31T12:21:27.709Z,101413.00
2023-01-31T12:24:12.555Z,101400.81
2023-01-31T12:26:54.928Z,101437.38
2023-01-31T12:29:55.526Z,101430.31
2023-01-31T12:32:39.559Z,101418.38
2023-01-31T12:35:29.151Z,101417.53
2023-01-31T12:38:07.767Z,101431.38
2023-01-31T12:40:52.125Z,101377.44
2023-01-31T12:43:49.578Z,101411.47
2023-01-31T12:46:37.665Z,101389.72
2023-01-31T12:49:16.261Z,101402.78
2023-01-31T12:51:59.275Z,101387.94
2023-01-31T12:54:52.922Z,101343.66
2023-01-31T12:57:35.034Z,101381.88
2023-01-31T13:00:24.677Z,101400.16
2023-01-31T13:03:00.132Z,101394.09
2023-01-31T13:05:32.649Z,101378.44
2023-01-31T13:08:17.504Z,101388.88
2023-01-31T13:11:07.487Z,101346.31
2023-01-31T13:13:56.180Z,101389.72
2023-01-31T13:16:29.151Z,101399.31
2023-01-31T13:19:01.515Z,101345.44
2023-01-31T13:21:33.417Z,101366.31
2023-01-31T13:24:09.667Z,101403.63
2023-01-31T13:26:43.571Z,101394.06
2023-01-31T13:29:20.596Z,101413.16
2023-01-31T13:32:12.845Z,101392.28
2023-01-31T13:34:55.784Z,101398.34
2023-01-31T13:37:22.466Z,101386.19
2023-01-31T13:40:00.783Z,101395.81
2023-01-31T13:42:28.311Z,101394.91
2023-01-31T13:44:55.916Z,101404.50
2023-01-31T13:47:28.011Z,101394.06
2023-01-31T13:50:02.446Z,101314.06
2023-01-31T13:52:34.791Z,101397.44
2023-01-31T13:55:06.830Z,101395.78
2023-01-31T13:57:46.545Z,101388.84
2023-01-31T14:00:45.154Z,101393.09
2023-01-31T14:03:14.507Z,101357.53
2023-01-31T14:05:50.522Z,101397.47
2023-01-31T14:08:39.155Z,101373.13
2023-01-31T14:11:14.287Z,101396.59
2023-01-31T14:13:43.918Z,101382.66
2023-01-31T14:16:31.950Z,101393.97
2023-01-31T14:18:58.405Z,101359.22
2023-01-31T14:21:30.958Z,101386.13
2023-01-31T14:23:59.478Z,101380.09
2023-01-31T14:26:44.229Z,101385.31
2023-01-31T14:29:16.978Z,101402.69
2023-01-31T14:31:45.227Z,101364.44
2023-01-31T14:34:26.413Z,101353.09
2023-01-31T14:37:09.042Z,101387.00
2023-01-31T14:39:58.979Z,101369.72
2023-01-31T14:42:51.592Z,101356.69
2023-01-31T14:45:29.904Z,101390.50
2023-01-31T14:48:23.745Z,101359.34
2023-01-31T14:50:56.937Z,101394.94
2023-01-31T14:53:26.326Z,101402.78
2023-01-31T14:56:06.188Z,101407.97
2023-01-31T14:58:35.823Z,101361.06
2023-01-31T15:01:05.406Z,101409.53
2023-01-31T15:03:36.180Z,101409.72
2023-01-31T15:06:15.793Z,101340.19
2023-01-31T15:08:49.152Z,101419.22
2023-01-31T15:11:44.468Z,101422.69
2023-01-31T15:14:35.163Z,101419.19
2023-01-31T15:17:40.425Z,101427.88
2023-01-31T15:20:24.143Z,101394.84
2023-01-31T15:22:53.647Z,101423.56
2023-01-31T15:25:35.418Z,101429.56
2023-01-31T15:28:03.727Z,101421.72
2023-01-31T15:30:33.908Z,101420.13
2023-01-31T15:33:00.301Z,101452.22
2023-01-31T15:35:42.628Z,101448.81
2023-01-31T15:38:35.467Z,101454.03
2023-01-31T15:41:16.226Z,101449.72
2023-01-31T15:43:42.558Z,101443.59
2023-01-31T15:46:32.414Z,101427.94
2023-01-31T15:49:00.362Z,101388.84
2023-01-31T15:51:27.944Z,101411.44
2023-01-31T15:54:09.356Z,101453.97
2023-01-31T15:56:40.366Z,101430.50
2023-01-31T15:59:13.767Z,101418.38
2023-01-31T16:01:47.615Z,101432.28
2023-01-31T16:04:14.240Z,101414.91
2023-01-31T16:06:41.044Z,101413.22
2023-01-31T16:09:22.366Z,101374.97
2023-01-31T16:11:49.120Z,101444.50
2023-01-31T16:14:16.309Z,101419.31
2023-01-31T16:16:45.518Z,101402.75
2023-01-31T16:19:25.679Z,101434.06
2023-01-31T16:21:52.995Z,101430.59
2023-01-31T16:24:22.656Z,101458.41
2023-01-31T16:26:59.868Z,101394.91
2023-01-31T16:29:50.812Z,101428.84
2023-01-31T16:32:25.243Z,101460.13
2023-01-31T16:34:58.322Z,101445.41
2023-01-31T16:37:35.452Z,101476.69
2023-01-31T16:40:24.943Z,101473.16
2023-01-31T16:43:18.701Z,101455.75
2023-01-31T16:45:57.236Z,101480.97
2023-01-31T16:48:32.844Z,101482.78
2023-01-31T16:51:20.375Z,101487.16
2023-01-31T16:54:06.859Z,101472.38
2023-01-31T16:56:33.303Z,101441.03
2023-01-31T16:58:59.887Z,101447.97
2023-01-31T17:01:33.411Z,101482.78
2023-01-31T17:04:07.328Z,101457.53
2023-01-31T17:06:34.869Z,101460.16
2023-01-31T17:09:04.344Z,101491.44
2023-01-31T17:11:42.209Z,101488.00
2023-01-31T17:14:09.472Z,101503.66
2023-01-31T17:16:35.793Z,101450.63
2023-01-31T17:19:02.243Z,101487.13
2023-01-31T17:21:29.149Z,101481.03
2023-01-31T17:23:55.571Z,101477.53
2023-01-31T17:26:23.246Z,101435.88
2023-01-31T17:29:00.875Z,101446.25
2023-01-31T17:31:29.378Z,101456.72
2023-01-31T17:33:55.777Z,101468.88
2023-01-31T17:36:22.186Z,101467.13
2023-01-31T17:38:48.669Z,101447.16
2023-01-31T17:41:17.361Z,101467.16
2023-01-31T17:43:44.459Z,101417.56
2023-01-31T17:46:13.571Z,101441.03
2023-01-31T17:48:40.546Z,101450.66
2023-01-31T17:51:07.145Z,101447.16
2023-01-31T17:53:40.461Z,101428.91
2023-01-31T17:56:14.355Z,101427.19
2023-01-31T17:58:40.734Z,101439.28
2023-01-31T18:01:11.911Z,101461.06
2023-01-31T18:03:38.236Z,101422.78
2023-01-31T18:06:08.324Z,101428.00
2023-01-31T18:08:35.061Z,101442.81
2023-01-31T18:11:10.576Z,101474.09
2023-01-31T18:13:38.377Z,101462.78
2023-01-31T18:16:10.696Z,101460.19
2023-01-31T18:18:40.315Z,101409.75
2023-01-31T18:21:14.508Z,101463.66
2023-01-31T18:23:40.977Z,101463.66
2023-01-31T18:26:08.818Z,101440.22
2023-01-31T18:28:35.527Z,101454.09
2023-01-31T18:31:10.373Z,101450.66
2023-01-31T18:33:37.415Z,101442.78
2023-01-31T18:36:04.334Z,101435.00
2023-01-31T18:38:30.653Z,101442.78
2023-01-31T18:40:58.434Z,101414.97
2023-01-31T18:43:25.250Z,101401.06
2023-01-31T18:45:51.684Z,101437.53
2023-01-31T18:48:18.025Z,101460.13
2023-01-31T18:50:44.354Z,101451.47
2023-01-31T18:53:10.666Z,101425.38
2023-01-31T18:55:37.060Z,101472.31
2023-01-31T18:58:03.649Z,101466.19
2023-01-31T19:00:30.010Z,101447.91
2023-01-31T19:02:56.726Z,101423.59
2023-01-31T19:05:23.652Z,101443.59
2023-01-31T19:07:50.205Z,101454.03
2023-01-31T19:10:16.962Z,101405.31
2023-01-31T19:12:43.320Z,101435.78
2023-01-31T19:15:12.138Z,101441.00
2023-01-31T19:17:38.558Z,101454.91
2023-01-31T19:20:06.026Z,101475.84
2023-01-31T19:22:32.405Z,101453.19
2023-01-31T19:24:58.775Z,101454.94
2023-01-31T19:27:25.858Z,101485.41
2023-01-31T19:29:52.286Z,101436.69
2023-01-31T19:32:18.752Z,101438.41
2023-01-31T19:34:45.145Z,101447.09
2023-01-31T19:37:11.469Z,101428.81
2023-01-31T19:39:37.862Z,101446.22
2023-01-31T19:42:04.818Z,101439.28
2023-01-31T19:44:31.780Z,101427.09
2023-01-31T19:46:58.225Z,101461.00
2023-01-31T19:49:24.763Z,101470.56
2023-01-31T19:51:51.140Z,101436.66
2023-01-31T19:54:19.229Z,101461.84
2023-01-31T19:56:45.684Z,101482.66
2023-01-31T19:59:12.581Z,101473.97
2023-01-31T20:01:39.755Z,101453.13
2023-01-31T20:04:06.133Z,101453.13
2023-01-31T20:06:33.779Z,101463.53
2023-01-31T20:09:01.115Z,101445.34
2023-01-31T20:11:34.721Z,101472.22
2023-01-31T20:14:01.258Z,101451.41
2023-01-31T20:16:28.036Z,101482.72
2023-01-31T20:18:56.069Z,101494.91
2023-01-31T20:21:22.592Z,101464.44
2023-01-31T20:23:49.428Z,101486.22
2023-01-31T20:26:16.792Z,101427.97
2023-01-31T20:28:44.419Z,101451.44
2023-01-31T20:31:12.611Z,101482.78
2023-01-31T20:33:39.053Z,101451.44
2023-01-31T20:36:12.005Z,101417.56
2023-01-31T20:38:39.665Z,101475.78
2023-01-31T20:41:08.414Z,101474.09
2023-01-31T20:43:35.734Z,101482.78
2023-01-31T20:46:07.083Z,101463.59
2023-01-31T20:48:33.514Z,101449.72
2023-01-31T20:51:00.196Z,101441.03
2023-01-31T20:53:28.596Z,101442.75
2023-01-31T20:56:15.281Z,101485.38
2023-01-31T20:58:43.144Z,101459.25
2023-01-31T21:01:11.023Z,101448.00
2023-01-31T21:03:37.978Z,101487.09
2023-01-31T21:06:04.817Z,101452.28
2023-01-31T21:08:31.999Z,101480.19
2023-01-31T21:10:59.579Z,101438.41
2023-01-31T21:13:31.419Z,101435.81
2023-01-31T21:16:00.011Z,101468.88
2023-01-31T21:18:28.987Z,101463.63
2023-01-31T21:20:55.830Z,101465.38
2023-01-31T21:23:22.382Z,101446.22
2023-01-31T21:25:48.971Z,101462.69
2023-01-31T21:28:15.595Z,101465.38
2023-01-31T21:30:42.290Z,101448.81
2023-01-31T21:33:08.810Z,101434.06
2023-01-31T21:35:35.210Z,101406.22
2023-01-31T21:38:01.704Z,101467.06
2023-01-31T21:40:28.057Z,101432.28
2023-01-31T21:42:54.870Z,101440.16
2023-01-31T21:45:39.365Z,101418.38
2023-01-31T21:48:25.787Z,101449.69
2023-01-31T21:50:52.203Z,101411.44
2023-01-31T21:53:18.890Z,101434.94
2023-01-31T21:55:45.441Z,101454.91
2023-01-31T21:58:11.845Z,101427.09
2023-01-31T22:00:38.461Z,101421.91
2023-01-31T22:03:04.804Z,101409.75
2023-01-31T22:05:31.919Z,101425.41
2023-01-31T22:07:58.254Z,101407.09
2023-01-31T22:10:24.587Z,101401.03
2023-01-31T22:12:51.333Z,101401.03
2023-01-31T22:15:17.642Z,101434.00
2023-01-31T22:17:44.001Z,101400.19
2023-01-31T22:20:11.974Z,101429.72
2023-01-31T22:22:38.330Z,101390.59
2023-01-31T22:25:05.107Z,101396.69
2023-01-31T22:27:31.420Z,101394.06
2023-01-31T22:30:06.603Z,101389.75
2023-01-31T22:32:40.630Z,101420.97
2023-01-31T22:35:07.215Z,101399.28
2023-01-31T22:37:33.543Z,101437.50
2023-01-31T22:39:59.887Z,101425.31
2023-01-31T22:42:26.206Z,101429.69
2023-01-31T22:44:52.517Z,101425.34
2023-01-31T22:47:18.838Z,101410.56
2023-01-31T22:49:45.149Z,101369.75
2023-01-31T22:52:11.478Z,101404.50
2023-01-31T22:54:37.785Z,101385.38
2023-01-31T22:57:04.125Z,101381.06
2023-01-31T22:59:30.436Z,101406.22
2023-01-31T23:01:56.757Z,101386.22
2023-01-31T23:04:23.345Z,101402.75
2023-01-31T23:06:49.668Z,101381.06
2023-01-31T23:09:17.033Z,101380.19
2023-01-31T23:11:43.367Z,101384.50
2023-01-31T23:14:09.722Z,101374.97
2023-01-31T23:16:54.852Z,101381.03
2023-01-31T23:19:21.217Z,101357.56
2023-01-31T23:21:48.791Z,101355.84
2023-01-31T23:24:15.164Z,101381.91
2023-01-31T23:26:42.013Z,101367.03
2023-01-31T23:29:08.463Z,101373.16
2023-01-31T23:31:34.943Z,101376.69
2023-01-31T23:34:01.390Z,101372.31
2023-01-31T23:36:27.774Z,101368.81
2023-01-31T23:38:54.109Z,101406.19
2023-01-31T23:41:20.479Z,101369.72
2023-01-31T23:43:46.823Z,101390.59
2023-01-31T23:46:13.177Z,101374.09
2023-01-31T23:48:41.444Z,101364.53
2023-01-31T23:51:07.754Z,101367.00
2023-01-31T23:53:34.124Z,101390.50
2023-01-31T23:56:00.459Z,101419.19
2023-01-31T23:58:26.780Z,101399.28
